createdAt,value
2023-04-12T00:01:46.880Z,22.97
2023-04-12T00:04:16.185Z,22.74
2023-04-12T00:06:48.650Z,23.15
2023-04-12T00:09:17.029Z,23.09
2023-04-12T00:11:44.900Z,22.61
2023-04-12T00:14:12.992Z,22.99
2023-04-12T00:16:41.662Z,22.66
2023-04-12T00:19:09.716Z,22.73
2023-04-12T00:21:37.674Z,23.02
2023-04-12T00:24:07.602Z,22.76
2023-04-12T00:26:35.757Z,22.95
2023-04-12T00:29:03.796Z,22.94
2023-04-12T00:31:32.148Z,22.56
2023-04-12T00:34:02.485Z,22.90
2023-04-12T00:36:30.712Z,22.89
2023-04-12T00:38:58.694Z,22.70
2023-04-12T00:41:28.885Z,22.89
2023-04-12T00:43:57.303Z,22.75
2023-04-12T00:46:25.708Z,22.76
2023-04-12T00:48:53.850Z,22.42
2023-04-12T00:51:22.524Z,22.80
2023-04-12T00:53:50.673Z,22.56
2023-04-12T00:56:19.832Z,22.64
2023-04-12T00:58:49.275Z,22.28
2023-04-12T01:01:19.438Z,22.61
2023-04-12T01:03:47.912Z,22.19
2023-04-12T01:06:27.082Z,22.70
2023-04-12T01:09:01.804Z,22.19
2023-04-12T01:11:33.974Z,22.20
2023-04-12T01:14:10.927Z,22.63
2023-04-12T01:16:44.437Z,22.31
2023-04-12T01:19:34.209Z,22.14
2023-04-12T01:22:13.395Z,22.22
2023-04-12T01:24:52.964Z,22.49
2023-04-12T01:27:35.701Z,22.41
2023-04-12T01:30:08.037Z,22.15
2023-04-12T01:32:38.279Z,22.18
2023-04-12T01:35:09.798Z,22.23
2023-04-12T01:37:38.004Z,22.09
2023-04-12T01:40:07.872Z,22.33
2023-04-12T01:42:37.324Z,22.13
2023-04-12T01:45:05.976Z,22.55
2023-04-12T01:47:34.684Z,22.47
2023-04-12T01:50:15.394Z,22.20
2023-04-12T01:52:49.423Z,22.38
2023-04-12T01:55:20.355Z,22.63
2023-04-12T01:57:51.411Z,22.44
2023-04-12T02:00:21.058Z,22.41
2023-04-12T02:02:49.437Z,22.21
2023-04-12T02:05:18.996Z,22.11
2023-04-12T02:07:49.854Z,22.10
2023-04-12T02:10:29.307Z,22.49
2023-04-12T02:13:01.414Z,22.44
2023-04-12T02:15:30.097Z,22.13
2023-04-12T02:17:59.354Z,22.28
2023-04-12T02:20:28.129Z,22.26
2023-04-12T02:22:56.121Z,22.38
2023-04-12T02:25:24.232Z,22.24
2023-04-12T02:27:52.264Z,22.42
2023-04-12T02:30:22.794Z,22.75
2023-04-12T02:32:54.045Z,22.66
2023-04-12T02:35:27.230Z,22.39
2023-04-12T02:38:00.818Z,22.67
2023-04-12T02:40:30.948Z,22.69
2023-04-12T02:42:59.772Z,22.30
2023-04-12T02:45:29.716Z,22.40
2023-04-12T02:47:58.627Z,22.72
2023-04-12T02:50:30.299Z,22.28
2023-04-12T02:53:06.356Z,22.12
2023-04-12T02:55:34.585Z,22.61
2023-04-12T02:58:04.931Z,22.08
2023-04-12T03:00:35.150Z,22.41
2023-04-12T03:03:04.120Z,22.53
2023-04-12T03:05:33.542Z,22.37
2023-04-12T03:08:01.804Z,22.75
2023-04-12T03:10:40.722Z,22.24
2023-04-12T03:13:08.762Z,22.30
2023-04-12T03:15:40.783Z,22.71
2023-04-12T03:18:08.915Z,22.68
2023-04-12T03:20:47.508Z,22.76
2023-04-12T03:23:16.663Z,22.27
2023-04-12T03:25:47.692Z,22.45
2023-04-12T03:28:36.156Z,22.47
2023-04-12T03:31:08.703Z,22.51
2023-04-12T03:33:47.475Z,22.41
2023-04-12T03:36:24.764Z,22.57
2023-04-12T03:38:58.473Z,22.56
2023-04-12T03:41:27.284Z,22.60
2023-04-12T03:43:56.116Z,22.40
2023-04-12T03:46:25.847Z,22.95
2023-04-12T03:48:58.109Z,22.81
2023-04-12T03:51:30.804Z,22.63
2023-04-12T03:54:04.446Z,22.46
2023-04-12T03:56:43.146Z,22.45
2023-04-12T03:59:20.306Z,22.50
2023-04-12T04:01:51.946Z,22.79
2023-04-12T04:04:21.150Z,22.50
2023-04-12T04:06:51.426Z,22.52
2023-04-12T04:09:20.092Z,22.79
2023-04-12T04:11:50.026Z,23.00
2023-04-12T04:14:19.438Z,22.93
2023-04-12T04:16:47.574Z,22.60
2023-04-12T04:19:17.560Z,23.13
2023-04-12T04:21:50.073Z,23.20
2023-04-12T04:24:18.911Z,22.98
2023-04-12T04:26:50.399Z,23.09
2023-04-12T04:29:28.693Z,23.18
2023-04-12T04:31:57.956Z,22.71
2023-04-12T04:34:28.278Z,23.17
2023-04-12T04:37:04.896Z,23.21
2023-04-12T04:39:33.061Z,23.12
2023-04-12T04:42:01.472Z,23.08
2023-04-12T04:44:40.572Z,22.91
2023-04-12T04:47:11.777Z,23.11
2023-04-12T04:49:41.311Z,22.82
2023-04-12T04:52:22.363Z,22.84
2023-04-12T04:54:51.454Z,23.09
2023-04-12T04:57:21.096Z,22.96
2023-04-12T04:59:49.713Z,23.29
2023-04-12T05:02:19.138Z,22.94
2023-04-12T05:04:48.627Z,22.83
2023-04-12T05:07:19.918Z,23.11
2023-04-12T05:09:49.658Z,22.56
2023-04-12T05:12:20.136Z,22.91
2023-04-12T05:14:52.369Z,22.81
2023-04-12T05:17:20.980Z,22.64
2023-04-12T05:19:50.453Z,22.99
2023-04-12T05:22:20.550Z,22.94
2023-04-12T05:24:48.673Z,22.68
2023-04-12T05:27:17.111Z,22.84
2023-04-12T05:29:47.176Z,22.90
2023-04-12T05:32:17.191Z,22.55
2023-04-12T05:34:45.140Z,22.73
2023-04-12T05:37:14.376Z,22.73
2023-04-12T05:39:43.578Z,22.25
2023-04-12T05:42:11.625Z,22.51
2023-04-12T05:44:40.633Z,22.61
2023-04-12T05:47:13.216Z,22.45
2023-04-12T05:49:41.365Z,22.45
2023-04-12T05:52:11.064Z,22.42
2023-04-12T05:54:41.753Z,22.04
2023-04-12T05:57:13.956Z,22.40
2023-04-12T05:59:42.161Z,22.42
2023-04-12T06:02:12.102Z,22.10
2023-04-12T06:04:50.007Z,22.42
2023-04-12T06:07:20.019Z,22.07
2023-04-12T06:09:49.976Z,22.06
2023-04-12T06:12:18.933Z,22.43
2023-04-12T06:14:47.661Z,22.25
2023-04-12T06:17:15.871Z,22.27
2023-04-12T06:19:44.897Z,22.21
2023-04-12T06:22:12.870Z,22.17
2023-04-12T06:24:42.281Z,22.32
2023-04-12T06:27:13.537Z,22.42
2023-04-12T06:29:41.737Z,22.29
2023-04-12T06:32:10.042Z,22.11
2023-04-12T06:34:38.143Z,21.94
2023-04-12T06:37:12.210Z,21.80
2023-04-12T06:39:40.323Z,21.93
2023-04-12T06:42:08.352Z,21.55
2023-04-12T06:44:43.096Z,21.61
2023-04-12T06:47:11.437Z,21.53
2023-04-12T06:49:39.588Z,21.44
2023-04-12T06:52:07.500Z,21.53
2023-04-12T06:54:37.621Z,21.21
2023-04-12T06:57:09.511Z,21.27
2023-04-12T06:59:37.583Z,21.23
2023-04-12T07:02:07.820Z,21.25
2023-04-12T07:04:36.139Z,20.96
2023-04-12T07:07:04.317Z,21.07
2023-04-12T07:09:33.326Z,20.92
2023-04-12T07:12:02.323Z,21.01
2023-04-12T07:14:30.703Z,21.47
2023-04-12T07:16:58.947Z,21.35
2023-04-12T07:19:29.722Z,21.42
2023-04-12T07:21:57.918Z,21.43
2023-04-12T07:24:26.188Z,21.08
2023-04-12T07:26:54.738Z,21.01
2023-04-12T07:29:22.755Z,21.06
2023-04-12T07:31:50.775Z,21.06
2023-04-12T07:34:19.006Z,21.12
2023-04-12T07:36:48.490Z,21.04
2023-04-12T07:39:16.571Z,21.09
2023-04-12T07:41:46.496Z,21.17
2023-04-12T07:44:14.459Z,21.08
2023-04-12T07:46:43.084Z,21.28
2023-04-12T07:49:11.419Z,21.02
2023-04-12T07:51:39.362Z,21.26
2023-04-12T07:54:08.770Z,21.23
2023-04-12T07:56:37.230Z,21.08
2023-04-12T07:59:05.238Z,21.00
2023-04-12T08:01:33.275Z,21.18
2023-04-12T08:04:02.364Z,21.00
2023-04-12T08:06:33.717Z,21.02
2023-04-12T08:09:02.353Z,21.04
2023-04-12T08:11:32.208Z,20.88
2023-04-12T08:14:00.260Z,21.02
2023-04-12T08:16:28.378Z,21.07
2023-04-12T08:18:56.478Z,21.10
2023-04-12T08:21:24.599Z,20.83
2023-04-12T08:23:52.558Z,21.01
2023-04-12T08:26:21.258Z,20.83
2023-04-12T08:28:50.669Z,20.81
2023-04-12T08:31:18.792Z,20.89
2023-04-12T08:33:46.916Z,20.92
2023-04-12T08:36:15.457Z,20.64
2023-04-12T08:38:45.960Z,20.78
2023-04-12T08:41:15.237Z,20.96
2023-04-12T08:43:46.170Z,20.89
2023-04-12T08:46:17.648Z,20.97
2023-04-12T08:48:47.484Z,21.13
2023-04-12T08:51:17.281Z,21.19
2023-04-12T08:53:45.595Z,21.10
2023-04-12T08:56:14.743Z,21.08
2023-04-12T08:58:46.675Z,21.13
2023-04-12T09:01:17.360Z,20.97
2023-04-12T09:03:47.066Z,20.98
2023-04-12T09:06:15.736Z,21.00
2023-04-12T09:08:54.446Z,21.05
2023-04-12T09:11:24.538Z,21.14
2023-04-12T09:13:52.880Z,20.84
2023-04-12T09:16:38.298Z,21.16
2023-04-12T09:19:06.900Z,20.96
2023-04-12T09:21:35.849Z,21.08
2023-04-12T09:24:10.775Z,21.09
2023-04-12T09:26:41.217Z,21.13
2023-04-12T09:29:24.331Z,21.12
2023-04-12T09:32:02.631Z,21.00
2023-04-12T09:34:31.127Z,21.37
2023-04-12T09:36:59.555Z,21.36
2023-04-12T09:39:33.251Z,21.12
2023-04-12T09:42:18.093Z,21.35
2023-04-12T09:44:54.358Z,21.38
2023-04-12T09:47:24.964Z,21.25
2023-04-12T09:49:53.039Z,21.43
2023-04-12T09:52:21.165Z,21.35
2023-04-12T09:54:49.650Z,21.40
2023-04-12T09:57:20.916Z,21.47
2023-04-12T09:59:51.204Z,21.38
2023-04-12T10:02:20.738Z,21.37
2023-04-12T10:04:51.029Z,21.51
2023-04-12T10:07:19.813Z,21.54
2023-04-12T10:09:48.295Z,21.68
2023-04-12T10:12:17.157Z,21.57
2023-04-12T10:14:45.929Z,21.38
2023-04-12T10:17:14.629Z,21.52
2023-04-12T10:19:42.699Z,21.75
2023-04-12T10:22:12.091Z,21.92
2023-04-12T10:24:40.321Z,22.05
2023-04-12T10:27:08.351Z,22.28
2023-04-12T10:29:38.156Z,22.62
2023-04-12T10:32:21.146Z,22.61
2023-04-12T10:34:53.208Z,22.78
2023-04-12T10:37:22.674Z,22.79
2023-04-12T10:39:54.511Z,22.82
2023-04-12T10:42:27.174Z,22.95
2023-04-12T10:44:58.687Z,23.15
2023-04-12T10:48:03.874Z,22.88
2023-04-12T10:50:33.904Z,23.19
2023-04-12T10:53:27.072Z,23.09
2023-04-12T10:55:55.600Z,22.97
2023-04-12T10:59:00.249Z,23.11
2023-04-12T11:01:34.123Z,23.21
2023-04-12T11:04:08.173Z,23.11
2023-04-12T11:06:52.742Z,23.10
2023-04-12T11:09:43.783Z,23.15
2023-04-12T11:12:21.090Z,23.15
2023-04-12T11:14:51.276Z,23.35
2023-04-12T11:17:26.148Z,23.25
2023-04-12T11:19:59.717Z,23.13
2023-04-12T11:22:30.663Z,23.36
2023-04-12T11:25:01.909Z,23.27
2023-04-12T11:27:31.832Z,23.29
2023-04-12T11:30:01.315Z,23.38
2023-04-12T11:32:30.699Z,23.23
2023-04-12T11:34:59.861Z,23.42
2023-04-12T11:37:32.169Z,23.16
2023-04-12T11:40:02.120Z,23.34
2023-04-12T11:42:30.511Z,23.41
2023-04-12T11:45:04.037Z,23.15
2023-04-12T11:47:43.714Z,23.20
2023-04-12T11:50:12.168Z,23.36
2023-04-12T11:52:41.354Z,23.17
2023-04-12T11:55:11.870Z,23.24
2023-04-12T11:57:40.442Z,23.28
2023-04-12T12:00:10.021Z,23.62
2023-04-12T12:02:49.335Z,23.34
2023-04-12T12:05:24.944Z,23.29
2023-04-12T12:07:54.155Z,23.53
2023-04-12T12:10:41.636Z,23.65
2023-04-12T12:13:12.549Z,23.74
2023-04-12T12:15:40.986Z,23.87
2023-04-12T12:18:10.158Z,23.84
2023-04-12T12:20:43.229Z,23.49
2023-04-12T12:23:11.351Z,23.84
2023-04-12T12:25:47.088Z,23.64
2023-04-12T12:28:15.147Z,23.74
2023-04-12T12:30:43.183Z,23.89
2023-04-12T12:33:11.220Z,23.60
2023-04-12T12:35:39.295Z,24.03
2023-04-12T12:38:08.633Z,23.96
2023-04-12T12:40:36.878Z,23.75
2023-04-12T12:43:07.058Z,23.53
2023-04-12T12:45:36.379Z,24.00
2023-04-12T12:48:05.822Z,23.81
2023-04-12T12:50:35.472Z,23.85
2023-04-12T12:53:06.027Z,23.83
2023-04-12T12:55:34.287Z,24.17
2023-04-12T12:58:08.197Z,23.90
2023-04-12T13:00:38.132Z,23.74
2023-04-12T13:03:06.339Z,23.72
2023-04-12T13:05:34.600Z,23.79
2023-04-12T13:08:02.811Z,24.19
2023-04-12T13:10:30.999Z,23.88
2023-04-12T13:13:01.573Z,24.23
2023-04-12T13:15:29.676Z,23.79
2023-04-12T13:17:59.124Z,24.21
2023-04-12T13:20:27.785Z,24.17
2023-04-12T13:22:55.914Z,23.78
2023-04-12T13:25:24.532Z,24.01
2023-04-12T13:27:53.084Z,24.15
2023-04-12T13:30:21.130Z,24.30
2023-04-12T13:32:49.119Z,24.10
2023-04-12T13:35:19.282Z,24.32
2023-04-12T13:37:47.337Z,24.30
2023-04-12T13:40:15.808Z,24.06
2023-04-12T13:42:43.780Z,23.89
2023-04-12T13:45:12.559Z,24.32
2023-04-12T13:47:40.970Z,24.02
2023-04-12T13:50:09.981Z,24.12
2023-04-12T13:52:39.311Z,23.97
2023-04-12T13:55:09.242Z,24.31
2023-04-12T13:57:37.273Z,24.52
2023-04-12T14:00:06.225Z,24.07
2023-04-12T14:02:34.339Z,24.59
2023-04-12T14:05:02.628Z,24.20
2023-04-12T14:07:30.782Z,24.55
2023-04-12T14:10:00.061Z,24.43
2023-04-12T14:12:28.014Z,24.44
2023-04-12T14:14:56.079Z,24.21
2023-04-12T14:17:24.160Z,24.30
2023-04-12T14:19:52.545Z,25.06
2023-04-12T14:22:20.773Z,24.70
2023-04-12T14:24:48.786Z,25.34
2023-04-12T14:27:18.362Z,25.90
2023-04-12T14:29:46.590Z,26.69
2023-04-12T14:32:14.845Z,27.26
2023-04-12T14:34:43.596Z,27.08
2023-04-12T14:37:11.913Z,27.50
2023-04-12T14:39:39.917Z,27.63
2023-04-12T14:42:07.902Z,27.96
2023-04-12T14:44:37.370Z,28.16
2023-04-12T14:47:05.254Z,28.01
2023-04-12T14:49:33.658Z,28.57
2023-04-12T14:52:02.564Z,28.71
2023-04-12T14:54:30.600Z,28.44
2023-04-12T14:56:58.560Z,28.47
2023-04-12T14:59:27.396Z,28.76
2023-04-12T15:01:58.650Z,28.60
2023-04-12T15:04:26.825Z,28.74
2023-04-12T15:06:54.850Z,28.63
2023-04-12T15:09:23.300Z,28.48
2023-04-12T15:11:54.975Z,28.57
2023-04-12T15:14:24.287Z,28.79
2023-04-12T15:16:52.280Z,28.50
2023-04-12T15:19:23.471Z,28.56
2023-04-12T15:21:52.349Z,28.95
2023-04-12T15:24:20.864Z,28.99
2023-04-12T15:26:50.791Z,28.76
2023-04-12T15:29:21.153Z,28.49
2023-04-12T15:31:49.384Z,28.44
2023-04-12T15:34:17.473Z,28.24
2023-04-12T15:36:47.116Z,28.66
2023-04-12T15:39:15.941Z,28.19
2023-04-12T15:41:43.912Z,28.64
2023-04-12T15:44:13.359Z,28.61
2023-04-12T15:46:42.515Z,28.24
2023-04-12T15:49:11.938Z,28.69
2023-04-12T15:51:40.264Z,28.40
2023-04-12T15:54:09.599Z,28.58
2023-04-12T15:56:38.616Z,28.25
2023-04-12T15:59:09.114Z,28.54
2023-04-12T16:01:38.020Z,28.23
2023-04-12T16:04:06.970Z,28.47
2023-04-12T16:06:38.088Z,28.26
2023-04-12T16:09:06.773Z,28.22
2023-04-12T16:11:36.142Z,28.17
2023-04-12T16:14:04.227Z,27.96
2023-04-12T16:16:34.622Z,28.35
2023-04-12T16:19:02.691Z,28.05
2023-04-12T16:21:30.856Z,27.94
2023-04-12T16:23:59.521Z,28.10
2023-04-12T16:26:27.603Z,28.23
2023-04-12T16:28:57.272Z,28.27
2023-04-12T16:31:26.408Z,27.95
2023-04-12T16:33:55.869Z,27.99
2023-04-12T16:36:24.528Z,27.90
2023-04-12T16:38:55.080Z,28.11
2023-04-12T16:41:23.399Z,28.39
2023-04-12T16:43:53.705Z,28.27
2023-04-12T16:46:23.538Z,28.28
2023-04-12T16:48:51.534Z,28.06
2023-04-12T16:51:19.728Z,27.93
2023-04-12T16:53:47.712Z,28.24
2023-04-12T16:56:16.865Z,28.05
2023-04-12T16:58:45.469Z,28.17
2023-04-12T17:01:17.049Z,27.76
2023-04-12T17:03:47.861Z,27.85
2023-04-12T17:06:17.169Z,27.59
2023-04-12T17:08:46.219Z,28.03
2023-04-12T17:11:14.182Z,27.83
2023-04-12T17:13:42.280Z,27.70
2023-04-12T17:16:11.044Z,27.79
2023-04-12T17:18:40.235Z,27.84
2023-04-12T17:21:09.589Z,27.37
2023-04-12T17:23:38.774Z,27.23
2023-04-12T17:26:08.333Z,27.53
2023-04-12T17:28:39.223Z,27.28
2023-04-12T17:31:08.813Z,26.89
2023-04-12T17:33:37.649Z,27.24
2023-04-12T17:36:11.343Z,26.63
2023-04-12T17:38:41.087Z,26.58
2023-04-12T17:41:10.293Z,26.68
2023-04-12T17:43:38.583Z,26.61
2023-04-12T17:46:07.247Z,26.68
2023-04-12T17:48:35.809Z,26.64
2023-04-12T17:51:04.258Z,26.37
2023-04-12T17:53:32.343Z,26.90
2023-04-12T17:56:02.109Z,26.85
2023-04-12T17:58:30.233Z,26.52
2023-04-12T18:00:59.490Z,26.73
2023-04-12T18:03:27.940Z,26.28
2023-04-12T18:05:58.678Z,26.72
2023-04-12T18:08:27.166Z,26.33
2023-04-12T18:10:55.187Z,26.66
2023-04-12T18:13:24.659Z,26.45
2023-04-12T18:15:52.762Z,26.54
2023-04-12T18:18:20.852Z,26.50
2023-04-12T18:20:48.876Z,26.17
2023-04-12T18:23:16.876Z,26.36
2023-04-12T18:25:45.400Z,26.30
2023-04-12T18:28:13.730Z,26.29
2023-04-12T18:30:43.043Z,26.10
2023-04-12T18:33:11.351Z,26.22
2023-04-12T18:35:40.233Z,26.14
2023-04-12T18:38:08.141Z,26.22
2023-04-12T18:40:38.733Z,26.14
2023-04-12T18:43:07.942Z,26.52
2023-04-12T18:45:39.635Z,26.42
2023-04-12T18:48:09.944Z,26.30
2023-04-12T18:50:39.245Z,26.44
2023-04-12T18:53:07.709Z,26.72
2023-04-12T18:55:35.926Z,26.29
2023-04-12T18:58:03.870Z,26.38
2023-04-12T19:00:32.808Z,26.74
2023-04-12T19:03:00.980Z,26.93
2023-04-12T19:05:30.566Z,26.67
2023-04-12T19:07:58.526Z,26.72
2023-04-12T19:10:30.456Z,26.89
2023-04-12T19:12:58.519Z,26.87
2023-04-12T19:15:27.161Z,27.01
2023-04-12T19:17:55.308Z,27.02
2023-04-12T19:20:23.234Z,27.29
2023-04-12T19:22:53.073Z,27.27
2023-04-12T19:25:21.293Z,27.21
2023-04-12T19:27:49.424Z,27.00
2023-04-12T19:30:17.926Z,27.04
2023-04-12T19:32:45.917Z,27.41
2023-04-12T19:35:14.062Z,27.16
2023-04-12T19:37:42.093Z,27.21
2023-04-12T19:40:13.746Z,27.36
2023-04-12T19:42:42.273Z,27.24
2023-04-12T19:45:10.773Z,27.14
2023-04-12T19:47:44.520Z,26.93
2023-04-12T19:50:13.259Z,26.73
2023-04-12T19:52:42.597Z,26.74
2023-04-12T19:55:12.549Z,26.82
2023-04-12T19:57:41.708Z,26.74
2023-04-12T20:00:19.386Z,26.67
2023-04-12T20:02:47.953Z,26.60
2023-04-12T20:05:16.873Z,26.96
2023-04-12T20:07:45.277Z,27.07
2023-04-12T20:10:15.716Z,26.75
2023-04-12T20:12:44.346Z,26.65
2023-04-12T20:15:13.064Z,26.11
2023-04-12T20:17:42.036Z,26.31
2023-04-12T20:20:12.736Z,26.25
2023-04-12T20:22:42.710Z,26.20
2023-04-12T20:25:11.212Z,26.29
2023-04-12T20:27:41.238Z,25.88
2023-04-12T20:30:11.370Z,25.99
2023-04-12T20:32:39.492Z,25.56
2023-04-12T20:35:08.956Z,25.45
2023-04-12T20:37:37.579Z,25.44
2023-04-12T20:40:09.339Z,25.27
2023-04-12T20:42:37.345Z,25.04
2023-04-12T20:45:07.699Z,25.35
2023-04-12T20:47:35.741Z,25.13
2023-04-12T20:50:03.809Z,25.27
2023-04-12T20:52:31.822Z,25.03
2023-04-12T20:54:59.767Z,25.06
2023-04-12T20:57:28.555Z,25.29
2023-04-12T20:59:56.575Z,25.09
2023-04-12T21:02:26.085Z,24.71
2023-04-12T21:04:54.426Z,25.30
2023-04-12T21:07:25.947Z,25.30
2023-04-12T21:09:54.001Z,24.98
2023-04-12T21:12:21.976Z,25.27
2023-04-12T21:14:50.926Z,25.18
2023-04-12T21:17:24.576Z,25.01
2023-04-12T21:19:54.110Z,24.65
2023-04-12T21:22:22.104Z,24.53
2023-04-12T21:24:50.197Z,24.82
2023-04-12T21:27:18.130Z,24.95
2023-04-12T21:29:47.252Z,24.96
2023-04-12T21:32:15.210Z,24.43
2023-04-12T21:34:43.100Z,24.80
2023-04-12T21:37:12.600Z,24.68
2023-04-12T21:39:43.412Z,24.86
2023-04-12T21:42:11.413Z,24.67
2023-04-12T21:44:42.311Z,24.29
2023-04-12T21:47:10.428Z,24.35
2023-04-12T21:49:38.339Z,24.88
2023-04-12T21:52:06.545Z,24.64
2023-04-12T21:54:37.032Z,24.71
2023-04-12T21:57:06.241Z,24.49
2023-04-12T21:59:34.241Z,24.23
2023-04-12T22:02:02.293Z,24.63
2023-04-12T22:04:30.308Z,24.13
2023-04-12T22:06:58.272Z,24.27
2023-04-12T22:09:27.109Z,24.52
2023-04-12T22:11:56.844Z,24.46
2023-04-12T22:14:24.891Z,24.61
2023-04-12T22:16:53.310Z,24.41
2023-04-12T22:19:21.296Z,24.47
2023-04-12T22:21:49.238Z,24.09
2023-04-12T22:24:17.319Z,24.28
2023-04-12T22:26:45.311Z,24.14
2023-04-12T22:29:17.727Z,24.51
2023-04-12T22:31:47.053Z,24.33
2023-04-12T22:34:15.277Z,24.14
2023-04-12T22:36:45.003Z,24.13
2023-04-12T22:39:15.529Z,24.21
2023-04-12T22:41:49.050Z,24.56
2023-04-12T22:44:18.833Z,24.59
2023-04-12T22:46:48.410Z,24.30
2023-04-12T22:49:16.880Z,24.12
2023-04-12T22:51:45.089Z,24.42
2023-04-12T22:54:13.162Z,24.21
2023-04-12T22:56:45.270Z,23.99
2023-04-12T22:59:14.417Z,24.07
2023-04-12T23:01:45.253Z,24.04
2023-04-12T23:04:13.659Z,23.90
2023-04-12T23:06:43.036Z,23.91
2023-04-12T23:09:12.569Z,23.93
2023-04-12T23:11:41.879Z,24.03
2023-04-12T23:14:10.652Z,24.22
2023-04-12T23:16:44.183Z,23.90
2023-04-12T23:19:14.807Z,24.22
2023-04-12T23:21:43.115Z,24.06
2023-04-12T23:24:15.314Z,23.88
2023-04-12T23:26:45.084Z,23.88
2023-04-12T23:29:13.259Z,23.57
2023-04-12T23:31:41.942Z,24.00
2023-04-12T23:34:10.055Z,23.94
2023-04-12T23:36:39.491Z,24.01
2023-04-12T23:39:09.451Z,23.43
2023-04-12T23:41:38.298Z,23.51
2023-04-12T23:44:06.536Z,23.98
2023-04-12T23:46:35.062Z,23.64
2023-04-12T23:49:03.080Z,23.81
2023-04-12T23:51:31.048Z,23.95
2023-04-12T23:54:00.784Z,23.56
2023-04-12T23:56:28.787Z,23.78
2023-04-12T23:58:56.840Z,23.50
